Terminal Aerodrome Forecast
Issued by NWS

Home | Current Version | Previous Version | Text Only | Print | Product List | Glossary On
Versions: 1 2 3 4 5 6 7 8 9 10 11 12
000
FTUS45 KRIW 021722
TAFJAC
TAF
KJAC 021722Z 0218/0318 36006KT P6SM SCT200
     FM030400 01010KT P6SM SCT100 BKN200
     FM031000 VRB05KT P6SM SCT080 BKN150
      AMD LTD TO CLD VIS AND WIND=

USA.gov is the U.S. government's official web portal to all federal, state and local government web resources and services.